Terminal Aerodrome Forecast
Issued by NWS Cleveland, OH

Home | Current Version | Previous Version | Graphics & Text | Print | Product List | Glossary On
Versions: 1 2 3 4 5 6 7 8 9 10 11 12 13 14 15 16 17 18 19 20 21 22 23 24 25 26 27 28 29 30 31
000
FTUS41 KCLE 241100
TAFMFD
TAF
KMFD 241137Z 2412/2512 22003KT P6SM BKN250
      TEMPO 2412/2414 3SM BR
     FM241400 24006KT P6SM SCT100
     FM241800 24006KT P6SM SCT040
     FM242200 22004KT P6SM SCT060
     FM250800 20006KT 3SM BR SCT003 BKN250=

USA.gov is the U.S. government's official web portal to all federal, state and local government web resources and services.